createdAt,value
2022-12-23T00:01:50.532Z,98419.22
2022-12-23T00:04:17.260Z,98483.41
2022-12-23T00:06:43.919Z,98554.06
2022-12-23T00:09:10.514Z,98440.31
2022-12-23T00:11:37.117Z,98455.75
2022-12-23T00:14:22.393Z,98530.44
2022-12-23T00:16:50.638Z,98580.13
2022-12-23T00:19:17.560Z,98359.69
2022-12-23T00:21:44.205Z,98576.94
2022-12-23T00:24:11.807Z,98514.72
2022-12-23T00:26:38.679Z,98540.38
2022-12-23T00:29:05.654Z,98571.13
2022-12-23T00:31:32.351Z,98520.00
2022-12-23T00:33:59.001Z,98592.47
2022-12-23T00:36:28.334Z,98581.16
2022-12-23T00:39:14.672Z,98325.50
2022-12-23T00:42:00.591Z,98546.66
2022-12-23T00:44:27.392Z,98482.66
2022-12-23T00:46:54.115Z,98412.19
2022-12-23T00:49:40.002Z,98593.47
2022-12-23T00:52:09.393Z,98422.50
2022-12-23T00:54:36.493Z,98542.91
2022-12-23T00:57:03.438Z,98568.41
2022-12-23T00:59:30.075Z,98599.78
2022-12-23T01:02:15.295Z,98564.56
2022-12-23T01:05:00.496Z,98608.97
2022-12-23T01:07:27.217Z,98596.00
2022-12-23T01:09:53.839Z,98512.94
2022-12-23T01:12:20.553Z,98600.34
2022-12-23T01:14:47.263Z,98604.50
2022-12-23T01:17:15.311Z,98607.97
2022-12-23T01:19:42.036Z,98452.09
2022-12-23T01:22:08.734Z,98487.44
2022-12-23T01:24:35.367Z,98514.13
2022-12-23T01:27:02.011Z,98622.13
2022-12-23T01:29:29.041Z,98624.00
2022-12-23T01:31:55.830Z,98631.09
2022-12-23T01:34:22.644Z,98475.03
2022-12-23T01:36:49.273Z,98598.25
2022-12-23T01:39:15.942Z,98497.81
2022-12-23T01:42:05.473Z,98635.88
2022-12-23T01:44:51.720Z,98632.88
2022-12-23T01:47:24.172Z,98638.13
2022-12-23T01:49:56.506Z,98421.28
2022-12-23T01:52:23.707Z,98540.63
2022-12-23T01:54:50.537Z,98483.19
2022-12-23T01:57:17.315Z,98519.50
2022-12-23T02:00:03.800Z,98575.41
2022-12-23T02:02:54.749Z,98447.22
2022-12-23T02:05:23.800Z,98634.47
2022-12-23T02:08:11.584Z,98652.22
2022-12-23T02:11:03.388Z,98663.56
2022-12-23T02:14:01.491Z,98646.75
2022-12-23T02:16:31.720Z,98666.06
2022-12-23T02:19:22.726Z,98539.78
2022-12-23T02:22:14.736Z,98625.50
2022-12-23T02:25:32.650Z,98675.66
2022-12-23T02:28:11.092Z,98670.81
2022-12-23T02:30:48.516Z,98676.56
2022-12-23T02:33:29.485Z,98674.31
2022-12-23T02:36:18.424Z,98656.53
2022-12-23T02:39:19.274Z,98684.91
2022-12-23T02:42:06.400Z,98682.41
2022-12-23T02:44:48.552Z,98683.31
2022-12-23T02:47:24.377Z,98595.78
2022-12-23T02:49:55.840Z,98685.47
2022-12-23T02:52:28.847Z,98670.31
2022-12-23T02:55:03.184Z,98692.25
2022-12-23T02:57:35.538Z,98313.84
2022-12-23T03:00:03.551Z,98709.03
2022-12-23T03:02:34.364Z,98676.38
2022-12-23T03:05:01.376Z,98665.78
2022-12-23T03:07:35.327Z,98661.84
2022-12-23T03:10:08.193Z,98707.03
2022-12-23T03:12:56.175Z,98702.59
2022-12-23T03:15:31.536Z,98713.88
2022-12-23T03:18:11.861Z,98659.75
2022-12-23T03:21:13.342Z,98719.50
2022-12-23T03:23:56.937Z,98590.41
2022-12-23T03:26:39.024Z,98738.63
2022-12-23T03:29:16.268Z,98677.09
2022-12-23T03:31:44.427Z,98694.53
2022-12-23T03:34:15.599Z,98741.72
2022-12-23T03:36:47.593Z,98729.94
2022-12-23T03:39:19.095Z,98533.94
2022-12-23T03:41:52.544Z,98645.25
2022-12-23T03:44:26.409Z,98670.09
2022-12-23T03:47:05.710Z,98658.50
2022-12-23T03:49:37.771Z,98700.06
2022-12-23T03:52:21.654Z,98765.22
2022-12-23T03:54:55.899Z,98758.47
2022-12-23T03:57:28.758Z,98713.63
2022-12-23T03:59:55.826Z,98662.97
2022-12-23T04:02:37.525Z,98758.88
2022-12-23T04:05:13.020Z,98754.94
2022-12-23T04:07:46.277Z,98660.13
2022-12-23T04:10:13.720Z,98752.91
2022-12-23T04:12:40.747Z,98731.66
2022-12-23T04:15:12.868Z,98757.09
2022-12-23T04:17:40.289Z,98671.00
2022-12-23T04:20:07.749Z,98776.09
2022-12-23T04:22:34.367Z,98748.81
2022-12-23T04:25:00.988Z,98683.81
2022-12-23T04:27:27.608Z,98770.53
2022-12-23T04:29:54.165Z,98700.22
2022-12-23T04:32:20.874Z,98641.06
2022-12-23T04:34:47.520Z,98771.06
2022-12-23T04:37:14.171Z,98766.03
2022-12-23T04:39:40.710Z,98774.28
2022-12-23T04:42:07.411Z,98776.59
2022-12-23T04:44:33.967Z,98600.78
2022-12-23T04:47:00.747Z,98695.09
2022-12-23T04:49:27.334Z,98793.25
2022-12-23T04:51:53.952Z,98757.91
2022-12-23T04:54:20.548Z,98520.31
2022-12-23T04:56:47.283Z,98797.78
2022-12-23T04:59:13.921Z,98799.84
2022-12-23T05:01:42.369Z,98757.19
2022-12-23T05:04:09.855Z,98712.31
2022-12-23T05:06:37.238Z,98831.13
2022-12-23T05:09:04.351Z,98844.72
2022-12-23T05:11:34.927Z,98812.06
2022-12-23T05:14:03.980Z,98811.94
2022-12-23T05:16:31.655Z,98579.69
2022-12-23T05:18:58.382Z,98817.59
2022-12-23T05:21:25.025Z,98753.97
2022-12-23T05:23:51.877Z,98808.25
2022-12-23T05:26:18.769Z,98810.75
2022-12-23T05:28:45.699Z,98802.59
2022-12-23T05:31:13.606Z,98826.72
2022-12-23T05:33:40.608Z,98830.72
2022-12-23T05:36:07.538Z,98721.34
2022-12-23T05:38:34.155Z,98832.41
2022-12-23T05:41:00.771Z,98744.19
2022-12-23T05:43:27.407Z,98826.53
2022-12-23T05:45:54.121Z,98730.88
2022-12-23T05:48:21.063Z,98844.31
2022-12-23T05:50:52.153Z,98801.97
2022-12-23T05:53:21.986Z,98836.53
2022-12-23T05:55:48.692Z,98856.66
2022-12-23T05:58:15.427Z,98821.84
2022-12-23T06:00:42.071Z,98865.03
2022-12-23T06:03:08.849Z,98770.75
2022-12-23T06:05:37.743Z,98866.47
2022-12-23T06:08:05.304Z,98741.47
2022-12-23T06:10:31.979Z,98873.91
2022-12-23T06:12:58.891Z,98861.38
2022-12-23T06:15:25.753Z,98800.94
2022-12-23T06:17:52.410Z,98872.19
2022-12-23T06:20:20.934Z,98819.69
2022-12-23T06:22:47.867Z,98803.41
2022-12-23T06:25:15.039Z,98790.13
2022-12-23T06:27:41.585Z,98885.88
2022-12-23T06:30:09.099Z,98879.25
2022-12-23T06:32:38.511Z,98895.13
2022-12-23T06:35:07.095Z,98890.91
2022-12-23T06:37:34.114Z,98907.19
2022-12-23T06:40:00.721Z,98907.28
2022-12-23T06:42:27.312Z,98869.84
2022-12-23T06:44:54.035Z,98493.81
2022-12-23T06:47:20.644Z,98913.69
2022-12-23T06:49:47.352Z,98772.56
2022-12-23T06:52:13.933Z,98811.34
2022-12-23T06:54:40.570Z,98577.78
2022-12-23T06:57:07.163Z,98804.66
2022-12-23T06:59:33.807Z,98853.31
2022-12-23T07:02:00.648Z,98949.03
2022-12-23T07:04:27.367Z,98880.03
2022-12-23T07:06:54.058Z,98915.00
2022-12-23T07:09:20.694Z,98952.56
2022-12-23T07:11:47.278Z,98966.63
2022-12-23T07:14:15.320Z,98962.63
2022-12-23T07:16:41.970Z,98926.09
2022-12-23T07:19:08.591Z,98845.72
2022-12-23T07:21:36.663Z,98966.66
2022-12-23T07:24:03.443Z,98974.72
2022-12-23T07:26:30.060Z,98525.13
2022-12-23T07:28:56.645Z,98870.09
2022-12-23T07:31:23.368Z,99011.06
2022-12-23T07:33:50.066Z,99014.69
2022-12-23T07:36:16.762Z,98957.19
2022-12-23T07:38:44.411Z,98620.88
2022-12-23T07:41:11.000Z,99015.53
2022-12-23T07:43:37.626Z,98979.78
2022-12-23T07:46:08.723Z,99019.41
2022-12-23T07:48:35.831Z,99021.97
2022-12-23T07:51:03.517Z,98598.16
2022-12-23T07:53:30.202Z,99021.13
2022-12-23T07:55:57.124Z,98944.28
2022-12-23T07:58:24.509Z,99026.72
2022-12-23T08:00:51.286Z,98946.28
2022-12-23T08:03:18.023Z,99041.19
2022-12-23T08:05:44.660Z,98855.31
2022-12-23T08:08:11.930Z,99056.59
2022-12-23T08:10:44.364Z,99005.28
2022-12-23T08:13:14.621Z,98974.94
2022-12-23T08:15:41.212Z,98936.00
2022-12-23T08:18:08.174Z,98702.22
2022-12-23T08:20:34.790Z,98795.41
2022-12-23T08:23:01.421Z,99059.88
2022-12-23T08:25:28.123Z,98806.22
2022-12-23T08:27:54.773Z,99092.03
2022-12-23T08:30:30.738Z,98703.03
2022-12-23T08:32:57.493Z,98576.66
2022-12-23T08:35:24.121Z,99075.88
2022-12-23T08:37:55.029Z,98712.88
2022-12-23T08:40:21.737Z,98355.25
2022-12-23T08:42:49.539Z,98859.78
2022-12-23T08:45:19.302Z,98681.41
2022-12-23T08:47:48.229Z,99067.47
2022-12-23T08:51:32.878Z,97918.28
2022-12-23T08:53:47.912Z,98312.41
2022-12-23T08:56:26.541Z,98627.53
2022-12-23T08:58:55.542Z,99088.41
2022-12-23T09:01:24.765Z,99073.53
2022-12-23T09:03:52.357Z,99081.09
2022-12-23T09:06:29.506Z,99090.03
2022-12-23T09:08:57.616Z,98978.06
2022-12-23T09:11:47.499Z,98913.41
2022-12-23T09:14:23.336Z,99097.78
2022-12-23T09:16:52.611Z,98843.22
2022-12-23T09:19:20.413Z,99090.44
2022-12-23T09:21:47.056Z,98941.28
2022-12-23T09:24:13.718Z,99101.41
2022-12-23T09:26:40.420Z,99063.88
2022-12-23T09:29:07.010Z,98956.88
2022-12-23T09:31:37.114Z,99091.53
2022-12-23T09:34:05.061Z,99106.44
2022-12-23T09:36:31.951Z,98794.91
2022-12-23T09:38:58.815Z,98420.78
2022-12-23T09:41:53.163Z,99100.06
2022-12-23T09:44:43.119Z,99094.66
2022-12-23T09:47:21.914Z,98966.81
2022-12-23T09:49:56.736Z,99089.69
2022-12-23T09:52:36.857Z,98975.38
2022-12-23T09:55:03.974Z,99036.25
2022-12-23T09:57:46.211Z,99062.06
2022-12-23T10:00:19.091Z,99086.59
2022-12-23T10:03:19.420Z,99098.97
2022-12-23T10:06:01.356Z,99091.81
2022-12-23T10:08:34.204Z,98989.91
2022-12-23T10:11:07.148Z,98880.66
2022-12-23T10:13:40.259Z,98978.09
2022-12-23T10:16:21.356Z,99091.66
2022-12-23T10:19:01.761Z,99094.91
2022-12-23T10:21:50.240Z,99015.00
2022-12-23T10:24:20.761Z,99150.19
2022-12-23T10:26:55.186Z,99104.97
2022-12-23T10:29:30.321Z,99105.47
2022-12-23T10:32:40.418Z,99110.44
2022-12-23T10:35:32.292Z,98971.72
2022-12-23T10:38:04.611Z,99117.84
2022-12-23T10:40:37.379Z,99127.69
2022-12-23T10:43:45.803Z,99138.50
2022-12-23T10:46:18.649Z,99136.75
2022-12-23T10:49:22.824Z,99135.56
2022-12-23T10:51:54.697Z,99125.63
2022-12-23T10:54:26.885Z,99106.03
2022-12-23T10:56:54.728Z,99073.22
2022-12-23T10:59:31.615Z,99148.66
2022-12-23T11:02:19.980Z,99002.63
2022-12-23T11:04:49.564Z,99130.06
2022-12-23T11:10:16.359Z,99136.47
2022-12-23T11:12:47.327Z,99146.41
2022-12-23T11:15:27.300Z,99001.03
2022-12-23T11:18:03.092Z,99096.75
2022-12-23T11:20:30.321Z,99152.66
2022-12-23T11:23:01.784Z,99145.63
2022-12-23T11:25:40.721Z,99151.75
2022-12-23T11:28:10.654Z,99152.84
2022-12-23T11:30:57.657Z,99151.47
2022-12-23T11:33:33.582Z,99000.25
2022-12-23T11:36:04.894Z,99152.66
2022-12-23T11:38:32.612Z,99182.75
2022-12-23T11:40:59.707Z,98992.31
2022-12-23T11:43:27.911Z,99158.63
2022-12-23T11:46:15.765Z,98999.91
2022-12-23T11:48:42.573Z,99063.75
2022-12-23T11:51:09.140Z,99050.34
2022-12-23T11:53:36.692Z,98953.06
2022-12-23T11:56:10.534Z,99145.81
2022-12-23T11:58:46.933Z,99162.75
2022-12-23T12:01:23.142Z,99161.38
2022-12-23T12:03:55.730Z,99202.03
2022-12-23T12:06:23.204Z,99150.28
2022-12-23T12:08:52.632Z,99172.88
2022-12-23T12:11:25.746Z,99165.16
2022-12-23T12:14:02.445Z,99010.34
2022-12-23T12:16:57.574Z,99173.22
2022-12-23T12:19:37.130Z,99168.88
2022-12-23T12:22:12.788Z,99072.22
2022-12-23T12:24:43.963Z,99112.09
2022-12-23T12:27:11.482Z,99160.88
2022-12-23T12:29:41.908Z,99087.09
2022-12-23T12:32:47.445Z,99161.44
2022-12-23T12:35:22.755Z,99171.75
2022-12-23T12:37:59.492Z,99168.09
2022-12-23T12:40:52.704Z,99168.19
2022-12-23T12:43:19.576Z,99163.00
2022-12-23T12:46:13.451Z,99009.75
2022-12-23T12:49:09.956Z,99163.75
2022-12-23T12:51:42.554Z,99157.22
2022-12-23T12:54:54.950Z,99157.81
2022-12-23T12:57:23.522Z,99137.91
2022-12-23T12:59:53.554Z,99185.16
2022-12-23T13:02:44.410Z,99075.56
2022-12-23T13:05:10.978Z,99182.88
2022-12-23T13:07:51.048Z,99175.16
2022-12-23T13:10:59.644Z,99171.50
2022-12-23T13:13:43.590Z,99166.72
2022-12-23T13:16:37.594Z,99162.31
2022-12-23T13:19:32.869Z,99177.63
2022-12-23T13:22:13.512Z,99161.38
2022-12-23T13:24:58.625Z,99167.56
2022-12-23T13:27:34.637Z,99162.16
2022-12-23T13:30:03.340Z,99171.97
2022-12-23T13:32:45.455Z,99160.63
2022-12-23T13:35:12.005Z,99159.91
2022-12-23T13:37:56.843Z,99160.81
2022-12-23T13:40:29.088Z,99163.50
2022-12-23T13:42:59.514Z,98989.31
2022-12-23T13:45:36.391Z,99155.66
2022-12-23T13:48:28.720Z,99152.75
2022-12-23T13:51:18.832Z,99159.50
2022-12-23T13:54:05.009Z,99169.34
2022-12-23T13:56:42.914Z,99179.31
2022-12-23T13:59:11.692Z,99192.47
2022-12-23T14:01:41.456Z,99191.97
2022-12-23T14:04:32.903Z,99191.09
2022-12-23T14:07:07.117Z,99148.94
2022-12-23T14:09:38.057Z,99151.22
2022-12-23T14:12:12.484Z,98975.63
2022-12-23T14:14:49.266Z,99138.13
2022-12-23T14:17:27.184Z,99192.75
2022-12-23T14:20:51.135Z,99200.22
2022-12-23T14:23:39.094Z,99205.72
2022-12-23T14:26:24.260Z,99206.94
2022-12-23T14:28:59.956Z,99217.81
2022-12-23T14:31:40.925Z,99096.75
2022-12-23T14:34:17.228Z,99221.59
2022-12-23T14:37:21.132Z,99218.06
2022-12-23T14:39:48.856Z,99034.28
2022-12-23T14:42:34.224Z,99179.59
2022-12-23T14:45:33.787Z,99224.75
2022-12-23T14:48:00.624Z,99201.66
2022-12-23T14:50:34.667Z,99228.13
2022-12-23T14:53:21.689Z,99183.94
2022-12-23T14:55:49.802Z,99115.22
2022-12-23T14:58:16.308Z,99236.03
2022-12-23T15:01:04.236Z,99240.28
2022-12-23T15:03:35.074Z,99205.47
2022-12-23T15:06:06.197Z,99270.50
2022-12-23T15:08:42.009Z,99145.44
2022-12-23T15:11:20.865Z,99264.44
2022-12-23T15:13:48.785Z,99125.19
2022-12-23T15:16:17.690Z,98977.56
2022-12-23T15:18:55.007Z,99268.09
2022-12-23T15:21:28.893Z,99156.69
2022-12-23T15:23:55.707Z,99264.63
2022-12-23T15:26:27.823Z,99221.66
2022-12-23T15:28:55.179Z,99056.44
2022-12-23T15:31:27.525Z,99268.94
2022-12-23T15:34:05.451Z,99156.94
2022-12-23T15:36:40.388Z,99119.66
2022-12-23T15:39:15.392Z,99275.91
2022-12-23T15:41:47.032Z,99280.63
2022-12-23T15:44:20.657Z,99264.19
2022-12-23T15:46:49.092Z,99257.56
2022-12-23T15:49:16.581Z,99070.19
2022-12-23T15:54:38.856Z,99272.19
2022-12-23T15:57:05.826Z,99268.38
2022-12-23T15:59:36.327Z,99265.06
2022-12-23T16:02:49.606Z,99302.63
2022-12-23T16:05:05.132Z,99252.56
2022-12-23T16:07:34.704Z,99274.72
2022-12-23T16:10:14.208Z,99041.97
2022-12-23T16:12:41.520Z,99258.44
2022-12-23T16:15:29.091Z,99281.31
2022-12-23T16:18:12.183Z,99281.72
2022-12-23T16:20:45.740Z,99280.03
2022-12-23T16:23:13.415Z,99224.13
2022-12-23T16:25:48.533Z,99126.28
2022-12-23T16:28:27.140Z,99286.88
2022-12-23T16:30:57.400Z,99240.78
2022-12-23T16:33:38.402Z,99097.88
2022-12-23T16:36:27.031Z,99281.66
2022-12-23T16:39:11.436Z,99287.69
2022-12-23T16:41:38.191Z,99287.94
2022-12-23T16:44:04.916Z,99267.63
2022-12-23T16:46:36.309Z,99047.75
2022-12-23T16:49:06.087Z,99115.69
2022-12-23T16:51:34.255Z,99114.41
2022-12-23T16:54:01.705Z,99131.34
2022-12-23T16:56:33.880Z,99286.28
2022-12-23T16:59:00.502Z,99289.72
2022-12-23T17:01:33.600Z,99287.91
2022-12-23T17:04:00.434Z,99223.47
2022-12-23T17:06:27.192Z,99289.28
2022-12-23T17:08:54.493Z,99175.31
2022-12-23T17:11:39.318Z,99256.53
2022-12-23T17:14:11.879Z,98858.66
2022-12-23T17:16:42.112Z,99297.75
2022-12-23T17:19:08.842Z,99287.63
2022-12-23T17:21:37.282Z,99249.50
2022-12-23T17:24:23.193Z,99274.44
2022-12-23T17:26:50.441Z,99182.19
2022-12-23T17:29:17.051Z,99111.22
2022-12-23T17:31:44.689Z,99062.25
2022-12-23T17:34:15.937Z,99230.63
2022-12-23T17:36:49.241Z,99244.44
2022-12-23T17:39:16.347Z,99305.44
2022-12-23T17:41:43.101Z,99211.53
2022-12-23T17:44:14.013Z,99271.53
2022-12-23T17:46:40.671Z,99224.31
2022-12-23T17:49:08.841Z,99289.34
2022-12-23T17:51:35.823Z,99232.88
2022-12-23T17:54:04.699Z,99289.38
2022-12-23T17:56:31.441Z,99352.41
2022-12-23T17:58:58.695Z,99348.69
2022-12-23T18:01:28.684Z,99338.69
2022-12-23T18:03:56.793Z,99273.72
2022-12-23T18:06:25.329Z,99359.59
2022-12-23T18:08:52.133Z,99170.75
2022-12-23T18:11:27.186Z,99215.16
2022-12-23T18:13:54.194Z,99344.66
2022-12-23T18:16:20.973Z,99355.03
2022-12-23T18:18:47.892Z,99185.19
2022-12-23T18:21:22.829Z,99222.53
2022-12-23T18:23:50.410Z,99352.13
2022-12-23T18:26:17.050Z,99356.69
2022-12-23T18:28:44.619Z,99358.78
2022-12-23T18:31:17.269Z,99358.53
2022-12-23T18:33:43.993Z,99367.63
2022-12-23T18:36:32.919Z,99286.97
2022-12-23T18:39:00.257Z,99360.56
2022-12-23T18:41:27.354Z,99265.50
2022-12-23T18:43:54.512Z,99336.09
2022-12-23T18:46:21.444Z,99356.09
2022-12-23T18:48:48.434Z,99350.47
2022-12-23T18:51:16.877Z,99361.19
2022-12-23T18:53:44.454Z,99318.91
2022-12-23T18:56:15.764Z,99251.78
2022-12-23T18:58:42.885Z,99229.88
2022-12-23T19:01:14.260Z,99376.56
2022-12-23T19:03:41.539Z,99312.03
2022-12-23T19:06:11.713Z,99363.03
2022-12-23T19:08:39.332Z,99384.41
2022-12-23T19:11:18.400Z,99277.31
2022-12-23T19:13:45.749Z,99239.28
2022-12-23T19:16:18.473Z,99399.91
2022-12-23T19:18:46.531Z,99317.13
2022-12-23T19:21:13.719Z,99367.78
2022-12-23T19:23:41.546Z,99403.44
2022-12-23T19:26:13.301Z,99207.13
2022-12-23T19:28:43.959Z,99364.97
2022-12-23T19:31:13.007Z,99407.00
2022-12-23T19:33:41.455Z,99407.72
2022-12-23T19:36:12.168Z,99299.53
2022-12-23T19:38:38.887Z,99346.13
2022-12-23T19:41:07.201Z,99442.16
2022-12-23T19:43:35.040Z,99259.56
2022-12-23T19:46:05.095Z,99431.50
2022-12-23T19:48:31.991Z,99257.53
2022-12-23T19:51:00.363Z,99423.44
2022-12-23T19:53:27.818Z,99418.22
2022-12-23T19:55:59.069Z,99421.31
2022-12-23T19:58:27.334Z,99430.34
2022-12-23T20:01:05.732Z,99432.44
2022-12-23T20:03:32.393Z,99439.81
2022-12-23T20:05:59.023Z,99412.66
2022-12-23T20:08:25.675Z,99394.47
2022-12-23T20:11:02.848Z,99483.63
2022-12-23T20:13:29.569Z,99447.78
2022-12-23T20:15:56.180Z,99344.91
2022-12-23T20:18:23.130Z,99063.41
2022-12-23T20:20:49.708Z,99285.06
2022-12-23T20:23:16.398Z,99346.56
2022-12-23T20:25:43.023Z,99461.72
2022-12-23T20:28:09.690Z,99467.56
2022-12-23T20:30:36.749Z,99469.34
2022-12-23T20:33:03.485Z,99468.59
2022-12-23T20:35:30.665Z,99431.06
2022-12-23T20:37:57.243Z,99478.63
2022-12-23T20:40:23.867Z,99416.97
2022-12-23T20:42:50.543Z,99478.06
2022-12-23T20:45:17.165Z,99328.16
2022-12-23T20:47:43.939Z,99480.31
2022-12-23T20:50:10.517Z,99324.88
2022-12-23T20:52:37.099Z,99473.41
2022-12-23T20:55:04.043Z,99477.91
2022-12-23T20:57:31.730Z,99349.69
2022-12-23T20:59:58.315Z,99409.84
2022-12-23T21:02:24.960Z,99431.78
2022-12-23T21:04:51.606Z,99428.84
2022-12-23T21:07:18.576Z,99455.63
2022-12-23T21:09:45.134Z,99401.34
2022-12-23T21:12:11.921Z,99405.81
2022-12-23T21:14:38.530Z,99483.50
2022-12-23T21:17:05.226Z,98943.84
2022-12-23T21:19:31.989Z,99481.94
2022-12-23T21:21:58.608Z,99484.53
2022-12-23T21:24:25.814Z,99294.75
2022-12-23T21:26:57.085Z,99496.34
2022-12-23T21:29:24.456Z,99344.94
2022-12-23T21:31:51.236Z,99349.44
2022-12-23T21:34:18.054Z,99302.84
2022-12-23T21:36:44.765Z,99483.78
2022-12-23T21:39:15.130Z,99279.00
2022-12-23T21:41:41.911Z,99501.34
2022-12-23T21:44:10.464Z,99505.00
2022-12-23T21:46:37.135Z,99446.72
2022-12-23T21:49:04.114Z,99130.03
2022-12-23T21:51:39.618Z,99509.88
2022-12-23T21:54:08.226Z,99501.22
2022-12-23T21:56:34.962Z,99527.47
2022-12-23T21:59:07.936Z,99504.19
2022-12-23T22:01:35.264Z,99501.59
2022-12-23T22:04:02.135Z,99506.91
2022-12-23T22:06:31.932Z,99465.56
2022-12-23T22:08:59.432Z,99331.25
2022-12-23T22:11:29.785Z,99530.78
2022-12-23T22:14:00.589Z,99310.69
2022-12-23T22:16:29.300Z,99545.13
2022-12-23T22:18:57.381Z,99528.84
2022-12-23T22:21:25.453Z,99537.25
2022-12-23T22:23:53.918Z,99542.28
2022-12-23T22:26:26.410Z,99444.81
2022-12-23T22:28:58.535Z,99545.28
2022-12-23T22:31:41.753Z,99552.47
2022-12-23T22:34:13.488Z,99371.44
2022-12-23T22:36:40.187Z,99542.22
2022-12-23T22:39:08.062Z,99558.22
2022-12-23T22:41:35.294Z,99552.00
2022-12-23T22:44:01.884Z,99555.16
2022-12-23T22:46:28.937Z,99554.69
2022-12-23T22:48:56.360Z,99556.66
2022-12-23T22:51:26.743Z,99555.81
2022-12-23T22:53:54.095Z,99560.28
2022-12-23T22:56:22.291Z,99544.94
2022-12-23T22:58:49.750Z,99563.16
2022-12-23T23:01:22.805Z,99152.84
2022-12-23T23:03:56.707Z,99376.44
2022-12-23T23:06:31.868Z,99568.59
2022-12-23T23:08:58.936Z,99567.31
2022-12-23T23:11:26.944Z,99581.38
2022-12-23T23:13:54.191Z,99568.78
2022-12-23T23:16:20.962Z,99571.19
2022-12-23T23:18:47.742Z,99532.50
2022-12-23T23:21:14.605Z,99480.34
2022-12-23T23:23:41.379Z,99407.56
2022-12-23T23:26:11.193Z,99558.91
2022-12-23T23:28:39.501Z,99557.50
2022-12-23T23:31:39.613Z,99365.22
2022-12-23T23:33:53.797Z,99558.22
2022-12-23T23:36:20.445Z,99560.97
2022-12-23T23:38:47.116Z,99549.47
2022-12-23T23:41:17.395Z,99466.81
2022-12-23T23:43:48.963Z,99573.56
2022-12-23T23:46:15.611Z,99438.03
2022-12-23T23:48:42.280Z,99551.50
2022-12-23T23:51:08.849Z,99464.56
2022-12-23T23:53:35.586Z,99536.44
2022-12-23T23:56:07.117Z,99586.66
2022-12-23T23:58:34.927Z,99582.81
